sensor_id;sensor_type;location;lat;lon;timestamp;P1;durP1;ratioP1;P2;durP2;ratioP2
29412;SDS011;16389;50.126;8.450;2022-12-07T00:00:55;11.20;;;5.13;;
29412;SDS011;16389;50.126;8.450;2022-12-07T00:03:29;8.75;;;4.88;;
29412;SDS011;16389;50.126;8.450;2022-12-07T00:05:57;11.63;;;6.68;;
29412;SDS011;16389;50.126;8.450;2022-12-07T00:08:23;8.50;;;5.55;;
29412;SDS011;16389;50.126;8.450;2022-12-07T00:10:49;9.60;;;5.53;;
29412;SDS011;16389;50.126;8.450;2022-12-07T00:13:14;11.50;;;5.43;;
29412;SDS011;16389;50.126;8.450;2022-12-07T00:15:40;11.80;;;6.20;;
29412;SDS011;16389;50.126;8.450;2022-12-07T00:18:06;12.55;;;4.90;;
29412;SDS011;16389;50.126;8.450;2022-12-07T00:20:31;8.75;;;5.15;;
29412;SDS011;16389;50.126;8.450;2022-12-07T00:22:58;10.15;;;6.05;;
29412;SDS011;16389;50.126;8.450;2022-12-07T00:25:23;12.98;;;6.47;;
29412;SDS011;16389;50.126;8.450;2022-12-07T00:27:49;14.50;;;6.45;;
29412;SDS011;16389;50.126;8.450;2022-12-07T00:30:15;10.38;;;6.05;;
29412;SDS011;16389;50.126;8.450;2022-12-07T00:32:40;10.77;;;5.90;;
29412;SDS011;16389;50.126;8.450;2022-12-07T00:35:06;8.60;;;5.95;;
29412;SDS011;16389;50.126;8.450;2022-12-07T00:37:32;9.82;;;6.05;;
29412;SDS011;16389;50.126;8.450;2022-12-07T00:39:57;8.38;;;5.47;;
29412;SDS011;16389;50.126;8.450;2022-12-07T00:42:23;7.90;;;5.13;;
29412;SDS011;16389;50.126;8.450;2022-12-07T00:44:48;10.05;;;6.07;;
29412;SDS011;16389;50.126;8.450;2022-12-07T00:47:14;8.65;;;4.70;;
29412;SDS011;16389;50.126;8.450;2022-12-07T00:49:39;13.95;;;6.07;;
29412;SDS011;16389;50.126;8.450;2022-12-07T00:52:05;15.60;;;6.03;;
29412;SDS011;16389;50.126;8.450;2022-12-07T00:54:31;9.20;;;5.47;;
29412;SDS011;16389;50.126;8.450;2022-12-07T00:56:56;9.57;;;5.15;;
29412;SDS011;16389;50.126;8.450;2022-12-07T00:59:22;12.52;;;5.82;;
29412;SDS011;16389;50.126;8.450;2022-12-07T01:01:47;7.53;;;4.43;;
29412;SDS011;16389;50.126;8.450;2022-12-07T01:04:13;12.10;;;6.10;;
29412;SDS011;16389;50.126;8.450;2022-12-07T01:06:38;7.20;;;4.82;;
29412;SDS011;16389;50.126;8.450;2022-12-07T01:09:04;9.52;;;4.90;;
29412;SDS011;16389;50.126;8.450;2022-12-07T01:11:31;7.63;;;4.55;;
29412;SDS011;16389;50.126;8.450;2022-12-07T01:13:58;9.23;;;4.80;;
29412;SDS011;16389;50.126;8.450;2022-12-07T01:16:25;8.27;;;5.32;;
29412;SDS011;16389;50.126;8.450;2022-12-07T01:18:52;8.40;;;5.00;;
29412;SDS011;16389;50.126;8.450;2022-12-07T01:21:23;11.02;;;5.53;;
29412;SDS011;16389;50.126;8.450;2022-12-07T01:24:01;7.38;;;4.18;;
29412;SDS011;16389;50.126;8.450;2022-12-07T01:26:27;7.05;;;3.78;;
29412;SDS011;16389;50.126;8.450;2022-12-07T01:28:53;9.60;;;6.07;;
29412;SDS011;16389;50.126;8.450;2022-12-07T01:31:20;8.45;;;5.25;;
29412;SDS011;16389;50.126;8.450;2022-12-07T01:33:48;7.20;;;3.70;;
29412;SDS011;16389;50.126;8.450;2022-12-07T01:38:52;9.57;;;3.95;;
29412;SDS011;16389;50.126;8.450;2022-12-07T01:41:22;7.25;;;4.45;;
29412;SDS011;16389;50.126;8.450;2022-12-07T01:46:36;8.20;;;3.83;;
29412;SDS011;16389;50.126;8.450;2022-12-07T01:49:02;6.60;;;4.00;;
29412;SDS011;16389;50.126;8.450;2022-12-07T01:51:29;5.63;;;3.22;;
29412;SDS011;16389;50.126;8.450;2022-12-07T01:53:55;5.95;;;3.55;;
29412;SDS011;16389;50.126;8.450;2022-12-07T01:56:23;5.88;;;3.55;;
29412;SDS011;16389;50.126;8.450;2022-12-07T01:58:51;6.90;;;3.33;;
29412;SDS011;16389;50.126;8.450;2022-12-07T02:01:18;5.30;;;2.95;;
29412;SDS011;16389;50.126;8.450;2022-12-07T02:03:44;4.53;;;2.95;;
29412;SDS011;16389;50.126;8.450;2022-12-07T02:06:10;8.60;;;4.00;;
29412;SDS011;16389;50.126;8.450;2022-12-07T02:08:38;6.70;;;4.85;;
29412;SDS011;16389;50.126;8.450;2022-12-07T02:11:04;7.60;;;3.83;;
29412;SDS011;16389;50.126;8.450;2022-12-07T02:13:32;5.30;;;3.55;;
29412;SDS011;16389;50.126;8.450;2022-12-07T02:16:05;6.32;;;3.58;;
29412;SDS011;16389;50.126;8.450;2022-12-07T02:22:20;5.35;;;3.05;;
29412;SDS011;16389;50.126;8.450;2022-12-07T02:28:16;8.90;;;3.03;;
29412;SDS011;16389;50.126;8.450;2022-12-07T02:30:51;7.82;;;3.92;;
29412;SDS011;16389;50.126;8.450;2022-12-07T02:33:24;5.23;;;3.97;;
29412;SDS011;16389;50.126;8.450;2022-12-07T02:35:56;7.53;;;3.53;;
29412;SDS011;16389;50.126;8.450;2022-12-07T02:38:29;8.27;;;3.00;;
29412;SDS011;16389;50.126;8.450;2022-12-07T02:41:04;5.32;;;2.88;;
29412;SDS011;16389;50.126;8.450;2022-12-07T02:46:13;5.20;;;3.03;;
29412;SDS011;16389;50.126;8.450;2022-12-07T02:48:41;4.63;;;3.42;;
29412;SDS011;16389;50.126;8.450;2022-12-07T02:51:08;4.80;;;2.88;;
29412;SDS011;16389;50.126;8.450;2022-12-07T02:53:35;6.25;;;2.90;;
29412;SDS011;16389;50.126;8.450;2022-12-07T02:59:28;5.05;;;3.28;;
29412;SDS011;16389;50.126;8.450;2022-12-07T03:15:52;4.95;;;3.20;;
29412;SDS011;16389;50.126;8.450;2022-12-07T03:18:20;4.47;;;2.40;;
29412;SDS011;16389;50.126;8.450;2022-12-07T03:20:49;5.00;;;3.00;;
29412;SDS011;16389;50.126;8.450;2022-12-07T03:23:17;4.33;;;2.70;;
29412;SDS011;16389;50.126;8.450;2022-12-07T03:25:46;6.18;;;3.22;;
29412;SDS011;16389;50.126;8.450;2022-12-07T03:28:15;6.90;;;2.40;;
29412;SDS011;16389;50.126;8.450;2022-12-07T03:30:54;5.43;;;3.25;;
29412;SDS011;16389;50.126;8.450;2022-12-07T03:33:46;9.60;;;4.35;;
29412;SDS011;16389;50.126;8.450;2022-12-07T03:36:20;16.52;;;3.75;;
29412;SDS011;16389;50.126;8.450;2022-12-07T03:39:03;4.72;;;3.03;;
29412;SDS011;16389;50.126;8.450;2022-12-07T03:41:38;4.85;;;3.05;;
29412;SDS011;16389;50.126;8.450;2022-12-07T03:44:04;5.88;;;3.30;;
29412;SDS011;16389;50.126;8.450;2022-12-07T03:46:34;6.47;;;2.60;;
29412;SDS011;16389;50.126;8.450;2022-12-07T03:52:02;5.13;;;3.03;;
29412;SDS011;16389;50.126;8.450;2022-12-07T03:54:56;8.02;;;3.83;;
29412;SDS011;16389;50.126;8.450;2022-12-07T03:57:35;4.80;;;2.95;;
29412;SDS011;16389;50.126;8.450;2022-12-07T04:00:03;5.63;;;4.03;;
29412;SDS011;16389;50.126;8.450;2022-12-07T04:02:31;6.25;;;3.63;;
29412;SDS011;16389;50.126;8.450;2022-12-07T04:04:58;4.47;;;3.05;;
29412;SDS011;16389;50.126;8.450;2022-12-07T04:07:23;5.80;;;3.78;;
29412;SDS011;16389;50.126;8.450;2022-12-07T04:09:50;7.43;;;3.55;;
29412;SDS011;16389;50.126;8.450;2022-12-07T04:12:15;5.22;;;3.10;;
29412;SDS011;16389;50.126;8.450;2022-12-07T04:14:41;6.65;;;4.00;;
29412;SDS011;16389;50.126;8.450;2022-12-07T04:17:07;5.28;;;3.63;;
29412;SDS011;16389;50.126;8.450;2022-12-07T04:19:34;5.93;;;3.10;;
29412;SDS011;16389;50.126;8.450;2022-12-07T04:22:00;7.55;;;4.32;;
29412;SDS011;16389;50.126;8.450;2022-12-07T04:24:27;4.55;;;3.20;;
29412;SDS011;16389;50.126;8.450;2022-12-07T04:26:53;6.53;;;4.50;;
29412;SDS011;16389;50.126;8.450;2022-12-07T04:29:20;6.68;;;3.97;;
29412;SDS011;16389;50.126;8.450;2022-12-07T04:31:46;4.75;;;3.50;;
29412;SDS011;16389;50.126;8.450;2022-12-07T04:34:12;5.78;;;4.03;;
29412;SDS011;16389;50.126;8.450;2022-12-07T04:36:38;7.00;;;3.22;;
29412;SDS011;16389;50.126;8.450;2022-12-07T04:39:05;7.45;;;4.00;;
29412;SDS011;16389;50.126;8.450;2022-12-07T04:41:32;6.32;;;3.55;;
29412;SDS011;16389;50.126;8.450;2022-12-07T04:44:01;7.20;;;4.18;;
29412;SDS011;16389;50.126;8.450;2022-12-07T04:46:29;5.45;;;3.35;;
29412;SDS011;16389;50.126;8.450;2022-12-07T04:48:56;9.45;;;3.65;;
29412;SDS011;16389;50.126;8.450;2022-12-07T04:51:23;5.22;;;3.33;;
29412;SDS011;16389;50.126;8.450;2022-12-07T04:53:53;5.95;;;4.15;;
29412;SDS011;16389;50.126;8.450;2022-12-07T04:56:19;10.07;;;4.43;;
29412;SDS011;16389;50.126;8.450;2022-12-07T04:58:46;8.88;;;4.38;;
29412;SDS011;16389;50.126;8.450;2022-12-07T05:01:13;4.90;;;3.05;;
29412;SDS011;16389;50.126;8.450;2022-12-07T05:03:39;7.93;;;3.70;;
29412;SDS011;16389;50.126;8.450;2022-12-07T05:06:05;6.03;;;3.95;;
29412;SDS011;16389;50.126;8.450;2022-12-07T05:08:32;5.35;;;3.38;;
29412;SDS011;16389;50.126;8.450;2022-12-07T05:10:58;5.40;;;3.85;;
29412;SDS011;16389;50.126;8.450;2022-12-07T05:13:24;5.70;;;4.40;;
29412;SDS011;16389;50.126;8.450;2022-12-07T05:15:50;6.45;;;4.07;;
29412;SDS011;16389;50.126;8.450;2022-12-07T05:18:15;12.63;;;4.32;;
29412;SDS011;16389;50.126;8.450;2022-12-07T05:20:41;7.30;;;4.97;;
29412;SDS011;16389;50.126;8.450;2022-12-07T05:23:08;6.20;;;4.10;;
29412;SDS011;16389;50.126;8.450;2022-12-07T05:25:34;6.53;;;4.47;;
29412;SDS011;16389;50.126;8.450;2022-12-07T05:28:00;5.88;;;3.88;;
29412;SDS011;16389;50.126;8.450;2022-12-07T05:30:26;9.85;;;4.70;;
29412;SDS011;16389;50.126;8.450;2022-12-07T05:32:52;5.80;;;4.38;;
29412;SDS011;16389;50.126;8.450;2022-12-07T05:35:18;12.60;;;4.15;;
29412;SDS011;16389;50.126;8.450;2022-12-07T05:37:44;6.53;;;4.32;;
29412;SDS011;16389;50.126;8.450;2022-12-07T05:40:10;7.93;;;4.53;;
29412;SDS011;16389;50.126;8.450;2022-12-07T05:42:36;8.10;;;3.92;;
29412;SDS011;16389;50.126;8.450;2022-12-07T05:45:02;7.57;;;5.10;;
29412;SDS011;16389;50.126;8.450;2022-12-07T05:47:28;7.30;;;4.22;;
29412;SDS011;16389;50.126;8.450;2022-12-07T05:49:54;8.82;;;3.83;;
29412;SDS011;16389;50.126;8.450;2022-12-07T05:52:20;8.27;;;5.47;;
29412;SDS011;16389;50.126;8.450;2022-12-07T05:54:46;6.72;;;4.32;;
29412;SDS011;16389;50.126;8.450;2022-12-07T05:57:11;9.20;;;4.13;;
29412;SDS011;16389;50.126;8.450;2022-12-07T05:59:37;7.82;;;4.07;;
29412;SDS011;16389;50.126;8.450;2022-12-07T06:02:07;9.82;;;4.18;;
29412;SDS011;16389;50.126;8.450;2022-12-07T06:04:35;5.68;;;3.92;;
29412;SDS011;16389;50.126;8.450;2022-12-07T06:07:02;6.07;;;4.13;;
29412;SDS011;16389;50.126;8.450;2022-12-07T06:09:29;7.78;;;4.20;;
29412;SDS011;16389;50.126;8.450;2022-12-07T06:11:55;5.53;;;4.30;;
29412;SDS011;16389;50.126;8.450;2022-12-07T06:14:40;9.23;;;4.50;;
29412;SDS011;16389;50.126;8.450;2022-12-07T06:17:06;5.60;;;3.78;;
29412;SDS011;16389;50.126;8.450;2022-12-07T06:19:32;8.50;;;4.53;;
29412;SDS011;16389;50.126;8.450;2022-12-07T06:21:58;5.78;;;4.63;;
29412;SDS011;16389;50.126;8.450;2022-12-07T06:24:23;6.32;;;5.05;;
29412;SDS011;16389;50.126;8.450;2022-12-07T06:26:49;7.38;;;4.88;;
29412;SDS011;16389;50.126;8.450;2022-12-07T06:29:15;9.80;;;4.30;;
29412;SDS011;16389;50.126;8.450;2022-12-07T06:31:41;8.52;;;4.13;;
29412;SDS011;16389;50.126;8.450;2022-12-07T06:34:11;11.25;;;5.38;;
29412;SDS011;16389;50.126;8.450;2022-12-07T06:36:39;7.68;;;4.20;;
29412;SDS011;16389;50.126;8.450;2022-12-07T06:39:05;12.48;;;4.90;;
29412;SDS011;16389;50.126;8.450;2022-12-07T06:41:31;15.10;;;4.72;;
29412;SDS011;16389;50.126;8.450;2022-12-07T06:43:57;7.93;;;4.13;;
29412;SDS011;16389;50.126;8.450;2022-12-07T06:46:22;7.47;;;4.40;;
29412;SDS011;16389;50.126;8.450;2022-12-07T06:48:49;6.70;;;4.10;;
29412;SDS011;16389;50.126;8.450;2022-12-07T06:51:14;7.22;;;4.13;;
29412;SDS011;16389;50.126;8.450;2022-12-07T06:53:40;6.07;;;3.85;;
29412;SDS011;16389;50.126;8.450;2022-12-07T06:56:06;7.80;;;4.55;;
29412;SDS011;16389;50.126;8.450;2022-12-07T06:58:32;11.13;;;5.07;;
29412;SDS011;16389;50.126;8.450;2022-12-07T07:00:57;6.40;;;3.78;;
29412;SDS011;16389;50.126;8.450;2022-12-07T07:03:23;6.55;;;4.07;;
29412;SDS011;16389;50.126;8.450;2022-12-07T07:05:49;12.68;;;4.47;;
29412;SDS011;16389;50.126;8.450;2022-12-07T07:08:14;6.72;;;4.32;;
29412;SDS011;16389;50.126;8.450;2022-12-07T07:10:40;7.68;;;4.68;;
29412;SDS011;16389;50.126;8.450;2022-12-07T07:13:06;7.20;;;4.45;;
29412;SDS011;16389;50.126;8.450;2022-12-07T07:15:32;7.80;;;4.07;;
29412;SDS011;16389;50.126;8.450;2022-12-07T07:17:59;9.52;;;3.80;;
29412;SDS011;16389;50.126;8.450;2022-12-07T07:20:25;8.18;;;4.32;;
29412;SDS011;16389;50.126;8.450;2022-12-07T07:22:51;6.05;;;4.07;;
29412;SDS011;16389;50.126;8.450;2022-12-07T07:25:19;8.38;;;4.75;;
29412;SDS011;16389;50.126;8.450;2022-12-07T07:27:44;8.77;;;4.40;;
29412;SDS011;16389;50.126;8.450;2022-12-07T07:30:10;7.70;;;3.58;;
29412;SDS011;16389;50.126;8.450;2022-12-07T07:32:36;8.02;;;4.43;;
29412;SDS011;16389;50.126;8.450;2022-12-07T07:35:02;4.38;;;3.08;;
29412;SDS011;16389;50.126;8.450;2022-12-07T07:37:28;6.18;;;3.28;;
29412;SDS011;16389;50.126;8.450;2022-12-07T07:39:53;5.78;;;3.45;;
29412;SDS011;16389;50.126;8.450;2022-12-07T07:42:19;8.23;;;4.10;;
29412;SDS011;16389;50.126;8.450;2022-12-07T07:44:44;9.13;;;4.03;;
29412;SDS011;16389;50.126;8.450;2022-12-07T07:47:10;7.30;;;3.72;;
29412;SDS011;16389;50.126;8.450;2022-12-07T07:49:36;6.68;;;4.55;;
29412;SDS011;16389;50.126;8.450;2022-12-07T07:52:01;9.40;;;4.60;;
29412;SDS011;16389;50.126;8.450;2022-12-07T07:54:27;5.38;;;3.53;;
29412;SDS011;16389;50.126;8.450;2022-12-07T07:56:53;5.38;;;3.80;;
29412;SDS011;16389;50.126;8.450;2022-12-07T07:59:18;4.50;;;3.08;;
29412;SDS011;16389;50.126;8.450;2022-12-07T08:01:44;7.78;;;3.13;;
29412;SDS011;16389;50.126;8.450;2022-12-07T08:04:09;5.35;;;3.30;;
29412;SDS011;16389;50.126;8.450;2022-12-07T08:06:35;5.65;;;3.40;;
29412;SDS011;16389;50.126;8.450;2022-12-07T08:09:01;5.40;;;2.88;;
29412;SDS011;16389;50.126;8.450;2022-12-07T08:11:27;5.40;;;4.07;;
29412;SDS011;16389;50.126;8.450;2022-12-07T08:13:53;6.60;;;3.25;;
29412;SDS011;16389;50.126;8.450;2022-12-07T08:16:19;4.55;;;2.47;;
29412;SDS011;16389;50.126;8.450;2022-12-07T08:18:44;3.35;;;2.53;;
29412;SDS011;16389;50.126;8.450;2022-12-07T08:21:11;4.82;;;2.85;;
29412;SDS011;16389;50.126;8.450;2022-12-07T08:23:38;4.55;;;2.53;;
29412;SDS011;16389;50.126;8.450;2022-12-07T08:26:05;5.47;;;2.45;;
29412;SDS011;16389;50.126;8.450;2022-12-07T08:28:32;4.47;;;2.45;;
29412;SDS011;16389;50.126;8.450;2022-12-07T08:31:02;5.28;;;3.03;;
29412;SDS011;16389;50.126;8.450;2022-12-07T08:33:32;6.15;;;2.28;;
29412;SDS011;16389;50.126;8.450;2022-12-07T08:36:05;4.07;;;2.85;;
29412;SDS011;16389;50.126;8.450;2022-12-07T08:38:36;4.18;;;2.25;;
29412;SDS011;16389;50.126;8.450;2022-12-07T08:41:03;3.83;;;2.50;;
29412;SDS011;16389;50.126;8.450;2022-12-07T08:43:29;2.67;;;2.15;;
29412;SDS011;16389;50.126;8.450;2022-12-07T08:46:18;4.03;;;2.35;;
29412;SDS011;16389;50.126;8.450;2022-12-07T08:48:53;3.78;;;2.63;;
29412;SDS011;16389;50.126;8.450;2022-12-07T08:51:26;2.92;;;2.13;;
29412;SDS011;16389;50.126;8.450;2022-12-07T08:53:51;4.32;;;2.75;;
29412;SDS011;16389;50.126;8.450;2022-12-07T08:56:18;3.58;;;2.03;;
29412;SDS011;16389;50.126;8.450;2022-12-07T08:58:46;3.47;;;2.15;;
29412;SDS011;16389;50.126;8.450;2022-12-07T09:01:12;3.53;;;2.03;;
29412;SDS011;16389;50.126;8.450;2022-12-07T09:03:38;3.60;;;2.28;;
29412;SDS011;16389;50.126;8.450;2022-12-07T09:06:04;9.82;;;2.33;;
29412;SDS011;16389;50.126;8.450;2022-12-07T09:08:31;2.72;;;1.65;;
29412;SDS011;16389;50.126;8.450;2022-12-07T09:10:59;3.00;;;1.50;;
29412;SDS011;16389;50.126;8.450;2022-12-07T09:13:25;4.78;;;2.28;;
29412;SDS011;16389;50.126;8.450;2022-12-07T09:15:50;3.38;;;1.88;;
29412;SDS011;16389;50.126;8.450;2022-12-07T09:18:16;3.30;;;1.85;;
29412;SDS011;16389;50.126;8.450;2022-12-07T09:20:41;2.15;;;1.80;;
29412;SDS011;16389;50.126;8.450;2022-12-07T09:23:07;3.60;;;2.63;;
29412;SDS011;16389;50.126;8.450;2022-12-07T09:25:33;3.95;;;2.00;;
29412;SDS011;16389;50.126;8.450;2022-12-07T09:27:59;2.72;;;1.80;;
29412;SDS011;16389;50.126;8.450;2022-12-07T09:30:26;3.80;;;2.47;;
29412;SDS011;16389;50.126;8.450;2022-12-07T09:32:53;5.28;;;2.22;;
29412;SDS011;16389;50.126;8.450;2022-12-07T09:35:19;4.15;;;2.13;;
29412;SDS011;16389;50.126;8.450;2022-12-07T09:37:44;3.95;;;1.58;;
29412;SDS011;16389;50.126;8.450;2022-12-07T09:40:10;2.53;;;1.95;;
29412;SDS011;16389;50.126;8.450;2022-12-07T09:42:37;8.30;;;3.38;;
29412;SDS011;16389;50.126;8.450;2022-12-07T09:45:07;3.38;;;1.65;;
29412;SDS011;16389;50.126;8.450;2022-12-07T09:47:39;3.10;;;1.75;;
29412;SDS011;16389;50.126;8.450;2022-12-07T09:50:06;2.70;;;1.90;;
29412;SDS011;16389;50.126;8.450;2022-12-07T09:52:38;5.15;;;2.40;;
29412;SDS011;16389;50.126;8.450;2022-12-07T09:55:09;2.13;;;1.40;;
29412;SDS011;16389;50.126;8.450;2022-12-07T09:57:38;2.25;;;1.60;;
29412;SDS011;16389;50.126;8.450;2022-12-07T10:00:06;3.47;;;2.28;;
29412;SDS011;16389;50.126;8.450;2022-12-07T10:02:40;1.83;;;1.65;;
29412;SDS011;16389;50.126;8.450;2022-12-07T10:05:10;2.65;;;1.38;;
29412;SDS011;16389;50.126;8.450;2022-12-07T10:07:43;3.13;;;1.58;;
29412;SDS011;16389;50.126;8.450;2022-12-07T10:10:30;1.85;;;1.40;;
29412;SDS011;16389;50.126;8.450;2022-12-07T10:12:57;2.45;;;1.50;;
29412;SDS011;16389;50.126;8.450;2022-12-07T10:15:42;2.00;;;1.55;;
29412;SDS011;16389;50.126;8.450;2022-12-07T10:18:18;2.17;;;1.42;;
29412;SDS011;16389;50.126;8.450;2022-12-07T10:20:50;7.50;;;1.05;;
29412;SDS011;16389;50.126;8.450;2022-12-07T10:23:32;2.72;;;0.95;;
29412;SDS011;16389;50.126;8.450;2022-12-07T10:25:59;2.15;;;1.30;;
29412;SDS011;16389;50.126;8.450;2022-12-07T10:32:03;4.13;;;1.20;;
29412;SDS011;16389;50.126;8.450;2022-12-07T10:39:43;2.30;;;1.38;;
29412;SDS011;16389;50.126;8.450;2022-12-07T10:42:16;2.75;;;1.50;;
29412;SDS011;16389;50.126;8.450;2022-12-07T10:44:45;1.38;;;1.23;;
29412;SDS011;16389;50.126;8.450;2022-12-07T10:47:27;2.22;;;1.27;;
29412;SDS011;16389;50.126;8.450;2022-12-07T10:50:10;1.38;;;1.00;;
29412;SDS011;16389;50.126;8.450;2022-12-07T10:55:16;4.95;;;1.10;;
29412;SDS011;16389;50.126;8.450;2022-12-07T11:03:36;5.60;;;1.98;;
29412;SDS011;16389;50.126;8.450;2022-12-07T11:06:27;3.63;;;1.50;;
29412;SDS011;16389;50.126;8.450;2022-12-07T11:15:19;2.47;;;1.15;;
29412;SDS011;16389;50.126;8.450;2022-12-07T11:21:27;3.65;;;1.30;;
29412;SDS011;16389;50.126;8.450;2022-12-07T11:23:49;2.25;;;0.88;;
29412;SDS011;16389;50.126;8.450;2022-12-07T11:29:47;2.60;;;1.20;;
29412;SDS011;16389;50.126;8.450;2022-12-07T11:35:05;1.30;;;0.95;;
29412;SDS011;16389;50.126;8.450;2022-12-07T11:37:39;3.88;;;1.40;;
29412;SDS011;16389;50.126;8.450;2022-12-07T11:42:52;1.80;;;1.35;;
29412;SDS011;16389;50.126;8.450;2022-12-07T11:45:48;2.22;;;1.30;;
29412;SDS011;16389;50.126;8.450;2022-12-07T11:48:33;1.65;;;0.80;;
29412;SDS011;16389;50.126;8.450;2022-12-07T11:51:03;1.83;;;0.82;;
29412;SDS011;16389;50.126;8.450;2022-12-07T11:56:20;0.85;;;0.70;;
29412;SDS011;16389;50.126;8.450;2022-12-07T11:58:53;1.30;;;0.82;;
29412;SDS011;16389;50.126;8.450;2022-12-07T12:06:38;1.33;;;0.90;;
29412;SDS011;16389;50.126;8.450;2022-12-07T12:09:50;6.25;;;1.52;;
29412;SDS011;16389;50.126;8.450;2022-12-07T12:12:26;1.83;;;1.08;;
29412;SDS011;16389;50.126;8.450;2022-12-07T12:23:33;1.20;;;0.80;;
29412;SDS011;16389;50.126;8.450;2022-12-07T12:25:36;2.03;;;1.10;;
29412;SDS011;16389;50.126;8.450;2022-12-07T12:28:15;2.22;;;0.90;;
29412;SDS011;16389;50.126;8.450;2022-12-07T12:31:14;5.32;;;0.93;;
29412;SDS011;16389;50.126;8.450;2022-12-07T12:33:46;6.18;;;1.33;;
29412;SDS011;16389;50.126;8.450;2022-12-07T12:36:24;2.88;;;0.80;;
29412;SDS011;16389;50.126;8.450;2022-12-07T12:51:54;3.08;;;1.08;;
29412;SDS011;16389;50.126;8.450;2022-12-07T12:54:22;1.10;;;0.90;;
29412;SDS011;16389;50.126;8.450;2022-12-07T13:02:33;1.60;;;0.98;;
29412;SDS011;16389;50.126;8.450;2022-12-07T13:28:44;1.00;;;0.65;;
29412;SDS011;16389;50.126;8.450;2022-12-07T13:33:42;1.77;;;0.80;;
29412;SDS011;16389;50.126;8.450;2022-12-07T13:36:32;1.30;;;0.90;;
29412;SDS011;16389;50.126;8.450;2022-12-07T13:39:44;1.85;;;0.93;;
29412;SDS011;16389;50.126;8.450;2022-12-07T13:41:59;2.08;;;0.90;;
29412;SDS011;16389;50.126;8.450;2022-12-07T13:44:39;3.85;;;0.77;;
29412;SDS011;16389;50.126;8.450;2022-12-07T13:49:54;0.85;;;0.80;;
29412;SDS011;16389;50.126;8.450;2022-12-07T13:52:25;1.10;;;0.70;;
29412;SDS011;16389;50.126;8.450;2022-12-07T13:57:26;2.13;;;0.80;;
29412;SDS011;16389;50.126;8.450;2022-12-07T13:59:55;1.40;;;0.80;;
29412;SDS011;16389;50.126;8.450;2022-12-07T14:04:50;3.08;;;0.80;;
29412;SDS011;16389;50.126;8.450;2022-12-07T14:07:24;2.30;;;1.10;;
29412;SDS011;16389;50.126;8.450;2022-12-07T14:10:02;2.05;;;0.85;;
29412;SDS011;16389;50.126;8.450;2022-12-07T14:12:31;2.05;;;1.33;;
29412;SDS011;16389;50.126;8.450;2022-12-07T14:14:58;1.73;;;1.05;;
29412;SDS011;16389;50.126;8.450;2022-12-07T14:17:26;0.93;;;0.73;;
29412;SDS011;16389;50.126;8.450;2022-12-07T14:19:57;1.52;;;1.20;;
29412;SDS011;16389;50.126;8.450;2022-12-07T14:27:40;2.72;;;0.88;;
29412;SDS011;16389;50.126;8.450;2022-12-07T14:30:18;1.10;;;0.80;;
29412;SDS011;16389;50.126;8.450;2022-12-07T14:32:44;0.70;;;0.70;;
29412;SDS011;16389;50.126;8.450;2022-12-07T14:35:17;1.17;;;0.75;;
29412;SDS011;16389;50.126;8.450;2022-12-07T14:37:44;2.90;;;0.80;;
29412;SDS011;16389;50.126;8.450;2022-12-07T14:40:16;2.05;;;0.77;;
29412;SDS011;16389;50.126;8.450;2022-12-07T14:42:44;1.20;;;0.77;;
29412;SDS011;16389;50.126;8.450;2022-12-07T14:45:19;2.63;;;1.00;;
29412;SDS011;16389;50.126;8.450;2022-12-07T14:47:46;1.95;;;0.75;;
29412;SDS011;16389;50.126;8.450;2022-12-07T14:50:13;4.15;;;0.88;;
29412;SDS011;16389;50.126;8.450;2022-12-07T14:52:40;1.60;;;0.93;;
29412;SDS011;16389;50.126;8.450;2022-12-07T14:55:25;0.75;;;0.63;;
29412;SDS011;16389;50.126;8.450;2022-12-07T14:57:54;0.88;;;0.70;;
29412;SDS011;16389;50.126;8.450;2022-12-07T15:00:21;1.10;;;0.90;;
29412;SDS011;16389;50.126;8.450;2022-12-07T15:02:49;1.23;;;0.77;;
29412;SDS011;16389;50.126;8.450;2022-12-07T15:05:15;1.55;;;0.82;;
29412;SDS011;16389;50.126;8.450;2022-12-07T15:07:41;0.90;;;0.70;;
29412;SDS011;16389;50.126;8.450;2022-12-07T15:10:15;1.48;;;0.70;;
29412;SDS011;16389;50.126;8.450;2022-12-07T15:12:48;2.17;;;1.17;;
29412;SDS011;16389;50.126;8.450;2022-12-07T15:15:14;2.22;;;1.08;;
29412;SDS011;16389;50.126;8.450;2022-12-07T15:17:39;2.10;;;0.90;;
29412;SDS011;16389;50.126;8.450;2022-12-07T15:20:07;0.95;;;0.70;;
29412;SDS011;16389;50.126;8.450;2022-12-07T15:22:38;0.80;;;0.80;;
29412;SDS011;16389;50.126;8.450;2022-12-07T15:25:04;2.30;;;0.70;;
29412;SDS011;16389;50.126;8.450;2022-12-07T15:27:31;1.35;;;0.63;;
29412;SDS011;16389;50.126;8.450;2022-12-07T15:29:56;2.20;;;0.80;;
29412;SDS011;16389;50.126;8.450;2022-12-07T15:32:22;1.13;;;0.60;;
29412;SDS011;16389;50.126;8.450;2022-12-07T15:34:48;1.88;;;0.70;;
29412;SDS011;16389;50.126;8.450;2022-12-07T15:37:15;2.20;;;1.08;;
29412;SDS011;16389;50.126;8.450;2022-12-07T15:39:40;1.83;;;1.10;;
29412;SDS011;16389;50.126;8.450;2022-12-07T15:42:06;3.10;;;1.10;;
29412;SDS011;16389;50.126;8.450;2022-12-07T15:44:32;1.45;;;0.60;;
29412;SDS011;16389;50.126;8.450;2022-12-07T15:47:16;1.20;;;0.90;;
29412;SDS011;16389;50.126;8.450;2022-12-07T15:49:41;1.35;;;0.80;;
29412;SDS011;16389;50.126;8.450;2022-12-07T15:52:07;3.92;;;1.02;;
29412;SDS011;16389;50.126;8.450;2022-12-07T15:54:33;1.38;;;0.55;;
29412;SDS011;16389;50.126;8.450;2022-12-07T15:56:58;12.02;;;1.95;;
29412;SDS011;16389;50.126;8.450;2022-12-07T15:59:25;1.67;;;0.80;;
29412;SDS011;16389;50.126;8.450;2022-12-07T16:01:51;1.52;;;0.57;;
29412;SDS011;16389;50.126;8.450;2022-12-07T16:04:17;2.58;;;0.90;;
29412;SDS011;16389;50.126;8.450;2022-12-07T16:06:43;1.80;;;0.63;;
29412;SDS011;16389;50.126;8.450;2022-12-07T16:09:09;2.15;;;0.75;;
29412;SDS011;16389;50.126;8.450;2022-12-07T16:11:35;1.15;;;0.70;;
29412;SDS011;16389;50.126;8.450;2022-12-07T16:14:00;0.73;;;0.73;;
29412;SDS011;16389;50.126;8.450;2022-12-07T16:16:26;1.58;;;0.85;;
29412;SDS011;16389;50.126;8.450;2022-12-07T16:18:52;1.90;;;0.77;;
29412;SDS011;16389;50.126;8.450;2022-12-07T16:21:19;0.70;;;0.50;;
29412;SDS011;16389;50.126;8.450;2022-12-07T16:23:44;1.05;;;0.75;;
29412;SDS011;16389;50.126;8.450;2022-12-07T16:26:11;1.38;;;0.75;;
29412;SDS011;16389;50.126;8.450;2022-12-07T16:28:39;1.60;;;1.15;;
29412;SDS011;16389;50.126;8.450;2022-12-07T16:31:06;1.60;;;0.75;;
29412;SDS011;16389;50.126;8.450;2022-12-07T16:33:39;3.10;;;0.82;;
29412;SDS011;16389;50.126;8.450;2022-12-07T16:36:07;6.25;;;1.05;;
29412;SDS011;16389;50.126;8.450;2022-12-07T16:38:34;1.20;;;0.90;;
29412;SDS011;16389;50.126;8.450;2022-12-07T16:41:00;1.58;;;0.75;;
29412;SDS011;16389;50.126;8.450;2022-12-07T16:43:25;3.83;;;1.30;;
29412;SDS011;16389;50.126;8.450;2022-12-07T16:45:51;2.00;;;1.00;;
29412;SDS011;16389;50.126;8.450;2022-12-07T16:48:17;1.27;;;0.90;;
29412;SDS011;16389;50.126;8.450;2022-12-07T16:50:44;0.70;;;0.57;;
29412;SDS011;16389;50.126;8.450;2022-12-07T16:53:10;0.90;;;0.80;;
29412;SDS011;16389;50.126;8.450;2022-12-07T16:55:39;0.98;;;0.70;;
29412;SDS011;16389;50.126;8.450;2022-12-07T16:58:06;1.10;;;0.52;;
29412;SDS011;16389;50.126;8.450;2022-12-07T17:00:32;1.85;;;1.08;;
29412;SDS011;16389;50.126;8.450;2022-12-07T17:02:58;2.72;;;0.70;;
29412;SDS011;16389;50.126;8.450;2022-12-07T17:05:24;3.22;;;0.77;;
29412;SDS011;16389;50.126;8.450;2022-12-07T17:07:51;1.25;;;0.80;;
29412;SDS011;16389;50.126;8.450;2022-12-07T17:10:17;3.55;;;1.20;;
29412;SDS011;16389;50.126;8.450;2022-12-07T17:12:43;2.05;;;1.17;;
29412;SDS011;16389;50.126;8.450;2022-12-07T17:15:09;2.63;;;2.10;;
29412;SDS011;16389;50.126;8.450;2022-12-07T17:17:46;6.05;;;1.00;;
29412;SDS011;16389;50.126;8.450;2022-12-07T17:20:17;2.22;;;1.25;;